sensor_id;sensor_type;location;lat;lon;timestamp;pressure;altitude;pressure_sealevel;temperature;humidity
56456;BME280;42354;53.218;6.564;2023-11-19T00:02:15;47231.50;;;-142.92;100.00
56456;BME280;42354;53.218;6.564;2023-11-19T00:04:41;47227.38;;;-142.92;100.00
56456;BME280;42354;53.218;6.564;2023-11-19T00:07:06;47229.44;;;-142.92;100.00
56456;BME280;42354;53.218;6.564;2023-11-19T00:09:33;47229.44;;;-142.92;100.00
56456;BME280;42354;53.218;6.564;2023-11-19T00:11:59;47229.44;;;-142.92;100.00
56456;BME280;42354;53.218;6.564;2023-11-19T00:14:26;47225.34;;;-142.92;100.00
56456;BME280;42354;53.218;6.564;2023-11-19T00:16:51;47225.34;;;-142.92;100.00
56456;BME280;42354;53.218;6.564;2023-11-19T00:19:17;47229.44;;;-142.92;100.00
56456;BME280;42354;53.218;6.564;2023-11-19T00:21:42;47225.34;;;-142.92;100.00
56456;BME280;42354;53.218;6.564;2023-11-19T00:24:08;47223.28;;;-142.92;100.00
56456;BME280;42354;53.218;6.564;2023-11-19T00:26:33;47225.34;;;-142.92;100.00
56456;BME280;42354;53.218;6.564;2023-11-19T00:28:59;47229.44;;;-142.92;100.00
56456;BME280;42354;53.218;6.564;2023-11-19T00:31:25;47225.34;;;-142.92;100.00
56456;BME280;42354;53.218;6.564;2023-11-19T00:33:53;47229.44;;;-142.92;100.00
56456;BME280;42354;53.218;6.564;2023-11-19T00:36:19;47227.38;;;-142.92;100.00
56456;BME280;42354;53.218;6.564;2023-11-19T00:38:44;47229.44;;;-142.92;100.00
56456;BME280;42354;53.218;6.564;2023-11-19T00:41:09;47225.34;;;-142.92;100.00
56456;BME280;42354;53.218;6.564;2023-11-19T00:43:35;47225.34;;;-142.92;100.00
56456;BME280;42354;53.218;6.564;2023-11-19T00:46:01;47227.38;;;-142.92;100.00
56456;BME280;42354;53.218;6.564;2023-11-19T00:48:27;47229.44;;;-142.92;100.00
56456;BME280;42354;53.218;6.564;2023-11-19T00:50:53;47233.53;;;-142.92;100.00
56456;BME280;42354;53.218;6.564;2023-11-19T00:53:18;47229.44;;;-142.92;100.00
56456;BME280;42354;53.218;6.564;2023-11-19T00:55:44;47231.50;;;-142.92;100.00
56456;BME280;42354;53.218;6.564;2023-11-19T00:58:12;47225.34;;;-142.92;100.00
56456;BME280;42354;53.218;6.564;2023-11-19T01:00:37;47225.34;;;-142.92;100.00
56456;BME280;42354;53.218;6.564;2023-11-19T01:03:03;47233.53;;;-142.92;100.00
56456;BME280;42354;53.218;6.564;2023-11-19T01:05:28;47225.34;;;-142.92;100.00
56456;BME280;42354;53.218;6.564;2023-11-19T01:07:54;47225.34;;;-142.92;100.00
56456;BME280;42354;53.218;6.564;2023-11-19T01:10:19;47233.53;;;-142.92;100.00
56456;BME280;42354;53.218;6.564;2023-11-19T01:12:45;47229.44;;;-142.92;100.00
56456;BME280;42354;53.218;6.564;2023-11-19T01:15:11;47227.38;;;-142.92;100.00
56456;BME280;42354;53.218;6.564;2023-11-19T01:17:38;47227.38;;;-142.92;100.00
56456;BME280;42354;53.218;6.564;2023-11-19T01:20:03;47225.34;;;-142.92;100.00
56456;BME280;42354;53.218;6.564;2023-11-19T01:22:31;47221.22;;;-142.92;100.00
56456;BME280;42354;53.218;6.564;2023-11-19T01:24:57;47225.34;;;-142.92;100.00
56456;BME280;42354;53.218;6.564;2023-11-19T01:27:23;47219.19;;;-142.92;100.00
56456;BME280;42354;53.218;6.564;2023-11-19T01:29:51;47225.34;;;-142.92;100.00
56456;BME280;42354;53.218;6.564;2023-11-19T01:32:17;47223.28;;;-142.92;100.00
56456;BME280;42354;53.218;6.564;2023-11-19T01:34:46;47229.44;;;-142.92;100.00
56456;BME280;42354;53.218;6.564;2023-11-19T01:37:11;47229.44;;;-142.92;100.00
56456;BME280;42354;53.218;6.564;2023-11-19T01:39:37;47225.34;;;-142.92;100.00
56456;BME280;42354;53.218;6.564;2023-11-19T01:42:03;47227.38;;;-142.92;100.00
56456;BME280;42354;53.218;6.564;2023-11-19T01:44:29;47227.38;;;-142.92;100.00
56456;BME280;42354;53.218;6.564;2023-11-19T01:46:54;47229.44;;;-142.92;100.00
56456;BME280;42354;53.218;6.564;2023-11-19T01:49:19;47225.34;;;-142.92;100.00
56456;BME280;42354;53.218;6.564;2023-11-19T01:51:46;47227.38;;;-142.92;100.00
56456;BME280;42354;53.218;6.564;2023-11-19T01:54:13;47227.38;;;-142.92;100.00
56456;BME280;42354;53.218;6.564;2023-11-19T01:56:40;47225.34;;;-142.92;100.00
56456;BME280;42354;53.218;6.564;2023-11-19T01:59:07;47227.38;;;-142.92;100.00
56456;BME280;42354;53.218;6.564;2023-11-19T02:01:35;47225.34;;;-142.92;100.00
56456;BME280;42354;53.218;6.564;2023-11-19T02:04:05;47225.34;;;-142.92;100.00
56456;BME280;42354;53.218;6.564;2023-11-19T02:06:33;47229.44;;;-142.92;100.00
56456;BME280;42354;53.218;6.564;2023-11-19T02:09:00;47225.34;;;-142.92;100.00
56456;BME280;42354;53.218;6.564;2023-11-19T02:11:26;47225.34;;;-142.92;100.00
56456;BME280;42354;53.218;6.564;2023-11-19T02:13:55;47225.34;;;-142.92;100.00
56456;BME280;42354;53.218;6.564;2023-11-19T02:16:21;47225.34;;;-142.92;100.00
56456;BME280;42354;53.218;6.564;2023-11-19T02:18:46;47225.34;;;-142.92;100.00
56456;BME280;42354;53.218;6.564;2023-11-19T02:21:12;47227.38;;;-142.92;100.00
56456;BME280;42354;53.218;6.564;2023-11-19T02:23:40;47223.28;;;-142.92;100.00
56456;BME280;42354;53.218;6.564;2023-11-19T02:26:21;47217.13;;;-142.92;100.00
56456;BME280;42354;53.218;6.564;2023-11-19T02:28:50;47221.22;;;-142.92;100.00
56456;BME280;42354;53.218;6.564;2023-11-19T02:31:15;47217.13;;;-142.92;100.00
56456;BME280;42354;53.218;6.564;2023-11-19T02:33:43;47217.13;;;-142.92;100.00
56456;BME280;42354;53.218;6.564;2023-11-19T02:36:09;47208.91;;;-142.92;100.00
56456;BME280;42354;53.218;6.564;2023-11-19T02:38:35;47204.81;;;-142.92;100.00
56456;BME280;42354;53.218;6.564;2023-11-19T02:41:04;47204.81;;;-142.92;100.00
56456;BME280;42354;53.218;6.564;2023-11-19T02:43:33;47204.81;;;-142.92;100.00
56456;BME280;42354;53.218;6.564;2023-11-19T02:46:05;47206.88;;;-142.92;100.00
56456;BME280;42354;53.218;6.564;2023-11-19T02:48:34;47204.81;;;-142.92;100.00
56456;BME280;42354;53.218;6.564;2023-11-19T02:51:03;47204.81;;;-142.92;100.00
56456;BME280;42354;53.218;6.564;2023-11-19T02:53:30;47204.81;;;-142.92;100.00
56456;BME280;42354;53.218;6.564;2023-11-19T02:55:55;47204.81;;;-142.92;100.00
56456;BME280;42354;53.218;6.564;2023-11-19T02:58:27;47208.91;;;-142.92;100.00
56456;BME280;42354;53.218;6.564;2023-11-19T03:00:53;47213.03;;;-142.92;100.00
56456;BME280;42354;53.218;6.564;2023-11-19T03:03:26;47213.03;;;-142.92;100.00
56456;BME280;42354;53.218;6.564;2023-11-19T03:06:07;47210.97;;;-142.92;100.00
56456;BME280;42354;53.218;6.564;2023-11-19T03:08:35;47213.03;;;-142.92;100.00
56456;BME280;42354;53.218;6.564;2023-11-19T03:11:01;47223.28;;;-142.92;100.00
56456;BME280;42354;53.218;6.564;2023-11-19T03:13:26;47217.13;;;-142.92;100.00
56456;BME280;42354;53.218;6.564;2023-11-19T03:15:52;47227.38;;;-142.92;100.00
56456;BME280;42354;53.218;6.564;2023-11-19T03:18:19;47227.38;;;-142.92;100.00
56456;BME280;42354;53.218;6.564;2023-11-19T03:20:46;47227.38;;;-142.92;100.00
56456;BME280;42354;53.218;6.564;2023-11-19T03:23:11;47229.44;;;-142.92;100.00
56456;BME280;42354;53.218;6.564;2023-11-19T03:25:37;47233.53;;;-142.92;100.00
56456;BME280;42354;53.218;6.564;2023-11-19T03:28:03;47229.44;;;-142.92;100.00
56456;BME280;42354;53.218;6.564;2023-11-19T03:30:30;47231.50;;;-142.92;100.00
56456;BME280;42354;53.218;6.564;2023-11-19T03:32:56;47237.66;;;-142.92;100.00
56456;BME280;42354;53.218;6.564;2023-11-19T03:35:25;47219.19;;;-142.92;100.00
56456;BME280;42354;53.218;6.564;2023-11-19T03:37:51;47239.69;;;-142.92;100.00
56456;BME280;42354;53.218;6.564;2023-11-19T03:40:17;47252.00;;;-142.92;100.00
56456;BME280;42354;53.218;6.564;2023-11-19T03:42:45;47254.06;;;-142.92;100.00
56456;BME280;42354;53.218;6.564;2023-11-19T03:45:10;47266.38;;;-142.92;100.00
56456;BME280;42354;53.218;6.564;2023-11-19T03:47:36;47276.63;;;-142.92;100.00
56456;BME280;42354;53.218;6.564;2023-11-19T03:50:02;47274.59;;;-142.92;100.00
56456;BME280;42354;53.218;6.564;2023-11-19T03:52:27;47274.59;;;-142.92;100.00
56456;BME280;42354;53.218;6.564;2023-11-19T03:54:53;47270.47;;;-142.92;100.00
56456;BME280;42354;53.218;6.564;2023-11-19T03:57:20;47282.78;;;-142.92;100.00
56456;BME280;42354;53.218;6.564;2023-11-19T03:59:46;47332.03;;;-142.92;100.00
56456;BME280;42354;53.218;6.564;2023-11-19T04:02:11;47332.03;;;-142.92;100.00
56456;BME280;42354;53.218;6.564;2023-11-19T04:04:36;47323.84;;;-142.92;100.00
56456;BME280;42354;53.218;6.564;2023-11-19T04:07:04;47301.25;;;-142.92;100.00
56456;BME280;42354;53.218;6.564;2023-11-19T04:09:29;47278.69;;;-142.92;100.00
56456;BME280;42354;53.218;6.564;2023-11-19T04:11:56;47282.78;;;-142.92;100.00
56456;BME280;42354;53.218;6.564;2023-11-19T04:14:21;47272.53;;;-142.92;100.00
56456;BME280;42354;53.218;6.564;2023-11-19T04:16:47;47266.38;;;-142.92;100.00
56456;BME280;42354;53.218;6.564;2023-11-19T04:19:12;47262.28;;;-142.92;100.00
56456;BME280;42354;53.218;6.564;2023-11-19T04:21:41;47223.28;;;-142.92;100.00
56456;BME280;42354;53.218;6.564;2023-11-19T04:24:09;47249.97;;;-142.92;100.00
56456;BME280;42354;53.218;6.564;2023-11-19T04:26:44;47243.81;;;-142.92;100.00
56456;BME280;42354;53.218;6.564;2023-11-19T04:29:14;47221.22;;;-142.92;100.00
56456;BME280;42354;53.218;6.564;2023-11-19T04:31:41;47256.13;;;-142.92;100.00
56456;BME280;42354;53.218;6.564;2023-11-19T04:34:07;47233.53;;;-142.92;100.00
56456;BME280;42354;53.218;6.564;2023-11-19T04:36:33;47256.13;;;-142.92;100.00
56456;BME280;42354;53.218;6.564;2023-11-19T04:38:59;47241.75;;;-142.92;100.00
56456;BME280;42354;53.218;6.564;2023-11-19T04:41:25;47223.28;;;-142.92;100.00
56456;BME280;42354;53.218;6.564;2023-11-19T04:43:53;47194.56;;;-142.92;100.00
56456;BME280;42354;53.218;6.564;2023-11-19T04:46:18;47151.44;;;-142.92;100.00
56456;BME280;42354;53.218;6.564;2023-11-19T04:48:44;47145.28;;;-142.92;100.00
56456;BME280;42354;53.218;6.564;2023-11-19T04:51:09;47124.78;;;-142.92;100.00
56456;BME280;42354;53.218;6.564;2023-11-19T04:53:36;47081.69;;;-142.92;100.00
56456;BME280;42354;53.218;6.564;2023-11-19T04:56:10;47059.09;;;-142.92;100.00
56456;BME280;42354;53.218;6.564;2023-11-19T04:58:36;47106.31;;;-142.92;100.00
56456;BME280;42354;53.218;6.564;2023-11-19T05:01:02;47098.09;;;-142.92;100.00
56456;BME280;42354;53.218;6.564;2023-11-19T05:03:29;47075.53;;;-142.92;100.00
56456;BME280;42354;53.218;6.564;2023-11-19T05:05:54;47057.06;;;-142.92;100.00
56456;BME280;42354;53.218;6.564;2023-11-19T05:08:19;47059.09;;;-142.92;100.00
56456;BME280;42354;53.218;6.564;2023-11-19T05:10:45;47011.91;;;-142.92;100.00
56456;BME280;42354;53.218;6.564;2023-11-19T05:13:10;46987.28;;;-142.92;100.00
56456;BME280;42354;53.218;6.564;2023-11-19T05:15:36;46966.75;;;-142.92;100.00
56456;BME280;42354;53.218;6.564;2023-11-19T05:18:01;46964.72;;;-142.92;100.00
56456;BME280;42354;53.218;6.564;2023-11-19T05:20:27;46909.31;;;-142.92;100.00
56456;BME280;42354;53.218;6.564;2023-11-19T05:22:52;46917.53;;;-142.92;100.00
56456;BME280;42354;53.218;6.564;2023-11-19T05:25:18;46901.09;;;-142.92;100.00
56456;BME280;42354;53.218;6.564;2023-11-19T05:27:45;46868.28;;;-142.92;100.00
56456;BME280;42354;53.218;6.564;2023-11-19T05:30:11;46888.78;;;-142.92;100.00
56456;BME280;42354;53.218;6.564;2023-11-19T05:32:36;46874.44;;;-142.92;100.00
56456;BME280;42354;53.218;6.564;2023-11-19T05:35:02;46909.31;;;-142.92;100.00
56456;BME280;42354;53.218;6.564;2023-11-19T05:37:28;46876.47;;;-142.92;100.00
56456;BME280;42354;53.218;6.564;2023-11-19T05:39:53;46864.16;;;-142.92;100.00
56456;BME280;42354;53.218;6.564;2023-11-19T05:42:19;46878.53;;;-142.92;100.00
56456;BME280;42354;53.218;6.564;2023-11-19T05:44:44;46876.47;;;-142.92;100.00
56456;BME280;42354;53.218;6.564;2023-11-19T05:47:10;46870.31;;;-142.92;100.00
56456;BME280;42354;53.218;6.564;2023-11-19T05:49:35;46835.44;;;-142.92;100.00
56456;BME280;42354;53.218;6.564;2023-11-19T05:52:00;46864.16;;;-142.92;100.00
56456;BME280;42354;53.218;6.564;2023-11-19T05:54:30;46860.06;;;-142.92;100.00
56456;BME280;42354;53.218;6.564;2023-11-19T05:56:58;46829.28;;;-142.92;100.00
56456;BME280;42354;53.218;6.564;2023-11-19T05:59:24;46901.09;;;-142.92;100.00
56456;BME280;42354;53.218;6.564;2023-11-19T06:01:49;46911.38;;;-142.92;100.00
56456;BME280;42354;53.218;6.564;2023-11-19T06:04:15;46921.63;;;-142.92;100.00
56456;BME280;42354;53.218;6.564;2023-11-19T06:06:41;46970.88;;;-142.92;100.00
56456;BME280;42354;53.218;6.564;2023-11-19T06:09:06;46968.81;;;-142.92;100.00
56456;BME280;42354;53.218;6.564;2023-11-19T06:11:34;46958.56;;;-142.92;100.00
56456;BME280;42354;53.218;6.564;2023-11-19T06:14:01;46962.66;;;-142.92;100.00
56456;BME280;42354;53.218;6.564;2023-11-19T06:16:26;46927.78;;;-142.92;100.00
56456;BME280;42354;53.218;6.564;2023-11-19T06:23:44;46954.44;;;-142.92;100.00
56456;BME280;42354;53.218;6.564;2023-11-19T06:26:09;46970.88;;;-142.92;100.00
56456;BME280;42354;53.218;6.564;2023-11-19T06:28:37;46942.13;;;-142.92;100.00
56456;BME280;42354;53.218;6.564;2023-11-19T06:31:03;46921.63;;;-142.92;100.00
56456;BME280;42354;53.218;6.564;2023-11-19T06:33:30;46913.41;;;-142.92;100.00
56456;BME280;42354;53.218;6.564;2023-11-19T06:35:55;46917.53;;;-142.92;100.00
56456;BME280;42354;53.218;6.564;2023-11-19T06:38:21;46921.63;;;-142.92;100.00
56456;BME280;42354;53.218;6.564;2023-11-19T06:40:46;46933.94;;;-142.92;100.00
56456;BME280;42354;53.218;6.564;2023-11-19T06:43:12;46946.25;;;-142.92;100.00
56456;BME280;42354;53.218;6.564;2023-11-19T06:45:37;46929.81;;;-142.92;100.00
56456;BME280;42354;53.218;6.564;2023-11-19T06:48:03;46880.59;;;-142.92;100.00
56456;BME280;42354;53.218;6.564;2023-11-19T06:50:29;46927.78;;;-142.92;100.00
56456;BME280;42354;53.218;6.564;2023-11-19T06:52:54;46892.91;;;-142.92;100.00
56456;BME280;42354;53.218;6.564;2023-11-19T06:55:20;46907.25;;;-142.92;100.00
56456;BME280;42354;53.218;6.564;2023-11-19T06:57:45;46913.41;;;-142.92;100.00
56456;BME280;42354;53.218;6.564;2023-11-19T07:00:11;46956.50;;;-142.92;100.00
56456;BME280;42354;53.218;6.564;2023-11-19T07:02:37;46958.56;;;-142.92;100.00
56456;BME280;42354;53.218;6.564;2023-11-19T07:05:02;46938.03;;;-142.92;100.00
56456;BME280;42354;53.218;6.564;2023-11-19T07:07:31;46966.75;;;-142.92;100.00
56456;BME280;42354;53.218;6.564;2023-11-19T07:09:56;46968.81;;;-142.92;100.00
56456;BME280;42354;53.218;6.564;2023-11-19T07:12:22;46977.03;;;-142.92;100.00
56456;BME280;42354;53.218;6.564;2023-11-19T07:14:47;46983.19;;;-142.92;100.00
56456;BME280;42354;53.218;6.564;2023-11-19T07:17:13;46921.63;;;-142.92;100.00
56456;BME280;42354;53.218;6.564;2023-11-19T07:19:38;46917.53;;;-142.92;100.00
56456;BME280;42354;53.218;6.564;2023-11-19T07:22:04;46872.38;;;-142.92;100.00
56456;BME280;42354;53.218;6.564;2023-11-19T07:24:31;46868.28;;;-142.92;100.00
56456;BME280;42354;53.218;6.564;2023-11-19T07:26:56;46870.31;;;-142.92;100.00
56456;BME280;42354;53.218;6.564;2023-11-19T07:29:22;46880.59;;;-142.92;100.00
56456;BME280;42354;53.218;6.564;2023-11-19T07:31:50;46886.75;;;-142.92;100.00
56456;BME280;42354;53.218;6.564;2023-11-19T07:34:16;46897.00;;;-142.92;100.00
56456;BME280;42354;53.218;6.564;2023-11-19T07:36:41;46876.47;;;-142.92;100.00
56456;BME280;42354;53.218;6.564;2023-11-19T07:39:07;46935.97;;;-142.92;100.00
56456;BME280;42354;53.218;6.564;2023-11-19T07:41:34;46905.22;;;-142.92;100.00
56456;BME280;42354;53.218;6.564;2023-11-19T07:44:00;46954.44;;;-142.92;100.00
56456;BME280;42354;53.218;6.564;2023-11-19T07:46:25;46952.41;;;-142.92;100.00
56456;BME280;42354;53.218;6.564;2023-11-19T07:48:51;46946.25;;;-142.92;100.00
56456;BME280;42354;53.218;6.564;2023-11-19T07:51:20;46983.19;;;-142.92;100.00
56456;BME280;42354;53.218;6.564;2023-11-19T07:53:45;46968.81;;;-142.92;100.00
56456;BME280;42354;53.218;6.564;2023-11-19T07:56:11;47013.97;;;-142.92;100.00
56456;BME280;42354;53.218;6.564;2023-11-19T07:58:36;46991.38;;;-142.92;100.00
56456;BME280;42354;53.218;6.564;2023-11-19T08:01:02;47005.75;;;-142.92;100.00
56456;BME280;42354;53.218;6.564;2023-11-19T08:03:27;47007.81;;;-142.92;100.00
56456;BME280;42354;53.218;6.564;2023-11-19T08:05:55;47007.81;;;-142.92;100.00
56456;BME280;42354;53.218;6.564;2023-11-19T08:08:21;47024.22;;;-142.92;100.00
56456;BME280;42354;53.218;6.564;2023-11-19T08:10:46;46999.59;;;-142.92;100.00
56456;BME280;42354;53.218;6.564;2023-11-19T08:13:12;47009.84;;;-142.92;100.00
56456;BME280;42354;53.218;6.564;2023-11-19T08:15:38;47018.06;;;-142.92;100.00
56456;BME280;42354;53.218;6.564;2023-11-19T08:18:03;47036.53;;;-142.92;100.00
56456;BME280;42354;53.218;6.564;2023-11-19T08:20:29;47020.13;;;-142.92;100.00
56456;BME280;42354;53.218;6.564;2023-11-19T08:22:54;47003.69;;;-142.92;100.00
56456;BME280;42354;53.218;6.564;2023-11-19T08:25:19;47009.84;;;-142.92;100.00
56456;BME280;42354;53.218;6.564;2023-11-19T08:27:45;46983.19;;;-142.92;100.00
56456;BME280;42354;53.218;6.564;2023-11-19T08:30:12;47016.00;;;-142.92;100.00
56456;BME280;42354;53.218;6.564;2023-11-19T08:32:37;47007.81;;;-142.92;100.00
56456;BME280;42354;53.218;6.564;2023-11-19T08:35:03;47016.00;;;-142.92;100.00
56456;BME280;42354;53.218;6.564;2023-11-19T08:37:28;47007.81;;;-142.92;100.00
56456;BME280;42354;53.218;6.564;2023-11-19T08:39:54;47020.13;;;-142.92;100.00
56456;BME280;42354;53.218;6.564;2023-11-19T08:42:19;47028.31;;;-142.92;100.00
56456;BME280;42354;53.218;6.564;2023-11-19T08:44:49;47032.44;;;-142.92;100.00
56456;BME280;42354;53.218;6.564;2023-11-19T08:47:16;47020.13;;;-142.92;100.00
56456;BME280;42354;53.218;6.564;2023-11-19T08:49:43;47020.13;;;-142.92;100.00
56456;BME280;42354;53.218;6.564;2023-11-19T08:52:09;47032.44;;;-142.92;100.00
56456;BME280;42354;53.218;6.564;2023-11-19T08:54:36;46979.06;;;-142.92;100.00
56456;BME280;42354;53.218;6.564;2023-11-19T08:57:01;46991.38;;;-142.92;100.00
56456;BME280;42354;53.218;6.564;2023-11-19T08:59:28;47016.00;;;-142.92;100.00
56456;BME280;42354;53.218;6.564;2023-11-19T09:01:54;46999.59;;;-142.92;100.00
56456;BME280;42354;53.218;6.564;2023-11-19T09:04:19;47016.00;;;-142.92;100.00
56456;BME280;42354;53.218;6.564;2023-11-19T09:06:47;46995.50;;;-142.92;100.00
56456;BME280;42354;53.218;6.564;2023-11-19T09:09:12;47024.22;;;-142.92;100.00
56456;BME280;42354;53.218;6.564;2023-11-19T09:11:39;47020.13;;;-142.92;100.00
56456;BME280;42354;53.218;6.564;2023-11-19T09:14:06;47009.84;;;-142.92;100.00
56456;BME280;42354;53.218;6.564;2023-11-19T09:16:31;46991.38;;;-142.92;100.00
56456;BME280;42354;53.218;6.564;2023-11-19T09:18:57;47036.53;;;-142.92;100.00
56456;BME280;42354;53.218;6.564;2023-11-19T09:21:24;46997.53;;;-142.92;100.00
56456;BME280;42354;53.218;6.564;2023-11-19T09:23:50;46999.59;;;-142.92;100.00
56456;BME280;42354;53.218;6.564;2023-11-19T09:26:16;47057.06;;;-142.92;100.00
56456;BME280;42354;53.218;6.564;2023-11-19T09:28:41;47005.75;;;-142.92;100.00
56456;BME280;42354;53.218;6.564;2023-11-19T09:31:16;46997.53;;;-142.92;100.00
56456;BME280;42354;53.218;6.564;2023-11-19T09:33:42;46997.53;;;-142.92;100.00
56456;BME280;42354;53.218;6.564;2023-11-19T09:36:08;47030.38;;;-142.92;100.00
56456;BME280;42354;53.218;6.564;2023-11-19T09:38:34;47018.06;;;-142.92;100.00
56456;BME280;42354;53.218;6.564;2023-11-19T09:41:05;47022.16;;;-142.92;100.00
56456;BME280;42354;53.218;6.564;2023-11-19T09:43:39;47028.31;;;-142.92;100.00
56456;BME280;42354;53.218;6.564;2023-11-19T09:46:06;47032.44;;;-142.92;100.00
56456;BME280;42354;53.218;6.564;2023-11-19T09:48:37;47052.94;;;-142.92;100.00
56456;BME280;42354;53.218;6.564;2023-11-19T09:51:05;47022.16;;;-142.92;100.00
56456;BME280;42354;53.218;6.564;2023-11-19T09:53:33;47038.59;;;-142.92;100.00
56456;BME280;42354;53.218;6.564;2023-11-19T09:56:02;47052.94;;;-142.92;100.00
56456;BME280;42354;53.218;6.564;2023-11-19T09:58:31;47050.91;;;-142.92;100.00
56456;BME280;42354;53.218;6.564;2023-11-19T10:00:58;47052.94;;;-142.92;100.00
56456;BME280;42354;53.218;6.564;2023-11-19T10:03:30;47036.53;;;-142.92;100.00
56456;BME280;42354;53.218;6.564;2023-11-19T10:05:57;47026.28;;;-142.92;100.00
56456;BME280;42354;53.218;6.564;2023-11-19T10:08:23;47030.38;;;-142.92;100.00
56456;BME280;42354;53.218;6.564;2023-11-19T10:10:50;47048.84;;;-142.92;100.00
56456;BME280;42354;53.218;6.564;2023-11-19T10:13:26;47052.94;;;-142.92;100.00
56456;BME280;42354;53.218;6.564;2023-11-19T10:15:53;47050.91;;;-142.92;100.00
56456;BME280;42354;53.218;6.564;2023-11-19T10:18:26;47040.63;;;-142.92;100.00
56456;BME280;42354;53.218;6.564;2023-11-19T10:20:52;47042.69;;;-142.92;100.00
56456;BME280;42354;53.218;6.564;2023-11-19T10:23:18;47052.94;;;-142.92;100.00
56456;BME280;42354;53.218;6.564;2023-11-19T10:25:43;47032.44;;;-142.92;100.00
56456;BME280;42354;53.218;6.564;2023-11-19T10:28:09;47028.31;;;-142.92;100.00
56456;BME280;42354;53.218;6.564;2023-11-19T10:30:35;47048.84;;;-142.92;100.00
56456;BME280;42354;53.218;6.564;2023-11-19T10:33:13;47030.38;;;-142.92;100.00
56456;BME280;42354;53.218;6.564;2023-11-19T10:35:52;47024.22;;;-142.92;100.00
56456;BME280;42354;53.218;6.564;2023-11-19T10:38:27;47034.47;;;-142.92;100.00
56456;BME280;42354;53.218;6.564;2023-11-19T10:40:53;47055.00;;;-142.92;100.00
56456;BME280;42354;53.218;6.564;2023-11-19T10:43:20;47036.53;;;-142.92;100.00
56456;BME280;42354;53.218;6.564;2023-11-19T10:45:48;47057.06;;;-142.92;100.00
56456;BME280;42354;53.218;6.564;2023-11-19T10:48:14;47024.22;;;-142.92;100.00
56456;BME280;42354;53.218;6.564;2023-11-19T10:50:43;47065.25;;;-142.92;100.00
56456;BME280;42354;53.218;6.564;2023-11-19T10:53:11;47026.28;;;-142.92;100.00
56456;BME280;42354;53.218;6.564;2023-11-19T10:55:40;47032.44;;;-142.92;100.00
56456;BME280;42354;53.218;6.564;2023-11-19T10:58:08;47034.47;;;-142.92;100.00
56456;BME280;42354;53.218;6.564;2023-11-19T11:00:55;47040.63;;;-142.92;100.00
56456;BME280;42354;53.218;6.564;2023-11-19T11:03:24;47052.94;;;-142.92;100.00
56456;BME280;42354;53.218;6.564;2023-11-19T11:05:52;47042.69;;;-142.92;100.00
56456;BME280;42354;53.218;6.564;2023-11-19T11:08:19;47048.84;;;-142.92;100.00
56456;BME280;42354;53.218;6.564;2023-11-19T11:13:16;47046.78;;;-142.92;100.00
56456;BME280;42354;53.218;6.564;2023-11-19T11:15:44;47042.69;;;-142.92;100.00
56456;BME280;42354;53.218;6.564;2023-11-19T11:18:12;47040.63;;;-142.92;100.00
56456;BME280;42354;53.218;6.564;2023-11-19T11:20:39;47038.59;;;-142.92;100.00
56456;BME280;42354;53.218;6.564;2023-11-19T11:23:14;47050.91;;;-142.92;100.00
56456;BME280;42354;53.218;6.564;2023-11-19T11:28:40;47036.53;;;-142.92;100.00
56456;BME280;42354;53.218;6.564;2023-11-19T11:39:57;47028.31;;;-142.92;100.00
56456;BME280;42354;53.218;6.564;2023-11-19T11:45:06;47063.22;;;-142.92;100.00
56456;BME280;42354;53.218;6.564;2023-11-19T11:50:15;47032.44;;;-142.92;100.00
56456;BME280;42354;53.218;6.564;2023-11-19T11:53:15;47032.44;;;-142.92;100.00
56456;BME280;42354;53.218;6.564;2023-11-19T11:58:08;47063.22;;;-142.92;100.00
56456;BME280;42354;53.218;6.564;2023-11-19T12:00:40;47036.53;;;-142.92;100.00
56456;BME280;42354;53.218;6.564;2023-11-19T12:03:08;47055.00;;;-142.92;100.00
56456;BME280;42354;53.218;6.564;2023-11-19T12:05:40;47046.78;;;-142.92;100.00
56456;BME280;42354;53.218;6.564;2023-11-19T12:08:07;47048.84;;;-142.92;100.00
56456;BME280;42354;53.218;6.564;2023-11-19T12:10:51;47036.53;;;-142.92;100.00
56456;BME280;42354;53.218;6.564;2023-11-19T12:13:23;47036.53;;;-142.92;100.00
56456;BME280;42354;53.218;6.564;2023-11-19T12:18:27;47034.47;;;-142.92;100.00
56456;BME280;42354;53.218;6.564;2023-11-19T12:20:56;47048.84;;;-142.92;100.00
56456;BME280;42354;53.218;6.564;2023-11-19T12:23:25;47071.41;;;-142.92;100.00
56456;BME280;42354;53.218;6.564;2023-11-19T12:25:51;47046.78;;;-142.92;100.00
56456;BME280;42354;53.218;6.564;2023-11-19T12:28:17;47030.38;;;-142.92;100.00
56456;BME280;42354;53.218;6.564;2023-11-19T12:30:44;47048.84;;;-142.92;100.00
56456;BME280;42354;53.218;6.564;2023-11-19T12:33:10;47048.84;;;-142.92;100.00
56456;BME280;42354;53.218;6.564;2023-11-19T12:35:40;47061.16;;;-142.92;100.00
56456;BME280;42354;53.218;6.564;2023-11-19T12:38:06;47042.69;;;-142.92;100.00
56456;BME280;42354;53.218;6.564;2023-11-19T12:40:31;47057.06;;;-142.92;100.00
56456;BME280;42354;53.218;6.564;2023-11-19T12:42:57;47059.09;;;-142.92;100.00
56456;BME280;42354;53.218;6.564;2023-11-19T12:45:23;47046.78;;;-142.92;100.00
56456;BME280;42354;53.218;6.564;2023-11-19T12:47:49;47050.91;;;-142.92;100.00
56456;BME280;42354;53.218;6.564;2023-11-19T12:50:16;47034.47;;;-142.92;100.00
56456;BME280;42354;53.218;6.564;2023-11-19T12:52:57;47055.00;;;-142.92;100.00
56456;BME280;42354;53.218;6.564;2023-11-19T12:55:29;47042.69;;;-142.92;100.00
56456;BME280;42354;53.218;6.564;2023-11-19T12:57:56;47052.94;;;-142.92;100.00
56456;BME280;42354;53.218;6.564;2023-11-19T13:00:24;47032.44;;;-142.92;100.00